LIPR/RMI METAR and TAF weather

Enter ICAO airport designator
Station Type Date Time Source
LIPR METAR 2019/06/18 17:20 UTC NOAA

LIPR 181720Z 05003KT CAVOK 26/18 Q1013


Station Type Date Time Source
LIPR Decoded METAR 2019/06/18 17:20 UTC NOAA

Rimini, Italy (LIPR) 44-02N 012-37E 13M
Jun 18, 2019 - 01:20 PM EDT / 2019.06.18 1720 UTC
Wind: from the NE (050 degrees) at 3 MPH (3 KT):0
Visibility: greater than 7 mile(s):0
Temperature: 78 F (26 C)
Dew Point: 64 F (18 C)
Relative Humidity: 61%
Pressure (altimeter): 29.91 in. Hg (1013 hPa)
ob: LIPR 181720Z 05003KT CAVOK 26/18 Q1013
cycle: 17

Station Type Date Time Source
LIPR TAF 2016/08/23 03:00 UTC NOAA

TAF LIPR 230200Z 2303/2312 04007KT CAVOK
BECMG 2308/2310 02010KT

Example: see airport list